PWSweather.com
Personal Weather Stations
Station Observations
KWIATHEL1
Marinette County, Athelstane, WI 54104

Marinette CountyAthelstane, WI 54104

Lat: 45.4, Lon: -88.12

Elevation: 960

Station Type: OS WM-918

http://weather.athelstanewi.com

Latest ConditionsUpdated 10:45:38 AM CST Friday, Jan 30, 2015
Currently Today's Max Today's Min Today's Average
Temperature 15.3°F-9.3°C 15.3°F-9.3°C 10.8°F-11.8°C 13.0°F-10.6°C
Dew Point 0.4°F-17.6°C 4.4°F-15.3°C -1.1°F-18.4°C 1.1°F-17.2°C
Winds 4.0 mph N6.4 kmh N 7.4 mph NNE11.9 kmh NNE - 1.4 mph 2.3 kmh
Wind Gusts 9.4 mph15.1 kmh 9.4 mph15.1 kmh - -
Humidity 51% 63% 51% 58%
Pressure 30.45 in1031.2 mb 30.48 in1032.2 mb 30.34 in1027.4 mb -
Hour Temp Dew Point Humidity Winds Wind Gusts Pressure Precip Precip Rate Daily Precip Total
10:45 AM 15.3°F-9.3°C 0.4°F-17.6°C 51% 4.0 mph N6.4 kmh N 9.4 mph15.1 kmh 30.45 in1031.2 mb 0.00 in0.0 mm 0.00 in/hr0.0 mm/hr 0.00 in0.0 mm
10:30 AM 14.5°F-9.7°C 0.5°F-17.5°C 53% 6.7 mph WSW10.8 kmh WSW 8.1 mph13.0 kmh 30.45 in1031.2 mb 0.00 in0.0 mm 0.00 in/hr0.0 mm/hr 0.00 in0.0 mm
10:15 AM 14.2°F-9.9°C 0.6°F-17.4°C 54% Calm Calm -- 30.45 in1031.2 mb 0.00 in0.0 mm 0.00 in/hr0.0 mm/hr 0.00 in0.0 mm
10:01 AM 14.2°F-9.9°C 1.0°F-17.2°C 55% Calm Calm -- 30.48 in1032.2 mb 0.00 in0.0 mm 0.00 in/hr0.0 mm/hr 0.00 in0.0 mm
09:45 AM 13.6°F-10.2°C 1.6°F-16.9°C 58% 5.4 mph WNW8.7 kmh WNW 6.7 mph10.8 kmh 30.45 in1031.2 mb 0.00 in0.0 mm 0.00 in/hr0.0 mm/hr 0.00 in0.0 mm
09:30 AM 13.3°F-10.4°C 1.3°F-17.1°C 58% 4.7 mph NW7.6 kmh NW 6.0 mph9.7 kmh 30.45 in1031.2 mb 0.00 in0.0 mm 0.00 in/hr0.0 mm/hr 0.00 in0.0 mm
09:15 AM 13.3°F-10.4°C 1.3°F-17.1°C 58% Calm Calm -- 30.45 in1031.2 mb 0.00 in0.0 mm 0.00 in/hr0.0 mm/hr 0.00 in0.0 mm
09:00 AM 12.7°F-10.7°C 0.8°F-17.3°C 58% Calm Calm -- 30.45 in1031.2 mb 0.00 in0.0 mm 0.00 in/hr0.0 mm/hr 0.00 in0.0 mm
08:45 AM 12.4°F-10.9°C 0.4°F-17.6°C 58% Calm Calm -- 30.45 in1031.2 mb 0.00 in0.0 mm 0.00 in/hr0.0 mm/hr 0.00 in0.0 mm
08:30 AM 12.0°F-11.1°C 0.1°F-17.7°C 58% Calm Calm -- 30.45 in1031.2 mb 0.00 in0.0 mm 0.00 in/hr0.0 mm/hr 0.00 in0.0 mm
08:15 AM 11.5°F-11.4°C -0.4°F-18.0°C 58% Calm Calm -- 30.45 in1031.2 mb 0.00 in0.0 mm 0.00 in/hr0.0 mm/hr 0.00 in0.0 mm
08:01 AM 11.1°F-11.6°C -0.8°F-18.2°C 58% Calm Calm -- 30.45 in1031.2 mb 0.00 in0.0 mm 0.00 in/hr0.0 mm/hr 0.00 in0.0 mm
07:45 AM 10.9°F-11.7°C -0.9°F-18.3°C 58% Calm Calm -- 30.45 in1031.2 mb 0.00 in0.0 mm 0.00 in/hr0.0 mm/hr 0.00 in0.0 mm
07:30 AM 10.8°F-11.8°C -1.1°F-18.4°C 58% Calm Calm -- 30.45 in1031.2 mb 0.00 in0.0 mm 0.00 in/hr0.0 mm/hr 0.00 in0.0 mm
07:15 AM 10.9°F-11.7°C -0.9°F-18.3°C 58% Calm Calm -- 30.45 in1031.2 mb 0.00 in0.0 mm 0.00 in/hr0.0 mm/hr 0.00 in0.0 mm
07:00 AM 11.1°F-11.6°C -0.8°F-18.2°C 58% Calm Calm -- 30.45 in1031.2 mb 0.00 in0.0 mm 0.00 in/hr0.0 mm/hr 0.00 in0.0 mm
06:45 AM 11.1°F-11.6°C -0.8°F-18.2°C 58% Calm Calm -- 30.45 in1031.2 mb 0.00 in0.0 mm 0.00 in/hr0.0 mm/hr 0.00 in0.0 mm
06:30 AM 11.3°F-11.5°C -0.6°F-18.1°C 58% Calm Calm -- 30.42 in1030.1 mb 0.00 in0.0 mm 0.00 in/hr0.0 mm/hr 0.00 in0.0 mm
06:15 AM 11.5°F-11.4°C -0.4°F-18.0°C 58% Calm Calm -- 30.42 in1030.1 mb 0.00 in0.0 mm 0.00 in/hr0.0 mm/hr 0.00 in0.0 mm
06:00 AM 11.7°F-11.3°C -0.3°F-17.9°C 58% 4.0 mph NE6.4 kmh NE 4.7 mph7.6 kmh 30.42 in1030.1 mb 0.00 in0.0 mm 0.00 in/hr0.0 mm/hr 0.00 in0.0 mm
05:45 AM 11.8°F-11.2°C -0.1°F-17.8°C 58% Calm Calm -- 30.42 in1030.1 mb 0.00 in0.0 mm 0.00 in/hr0.0 mm/hr 0.00 in0.0 mm
05:30 AM 12.0°F-11.1°C 0.1°F-17.7°C 58% Calm Calm 5.4 mph8.7 kmh 30.42 in1030.1 mb 0.00 in0.0 mm 0.00 in/hr0.0 mm/hr 0.00 in0.0 mm
05:15 AM 12.0°F-11.1°C 0.1°F-17.7°C 58% 5.4 mph NW8.7 kmh NW 5.4 mph8.7 kmh 30.42 in1030.1 mb 0.00 in0.0 mm 0.00 in/hr0.0 mm/hr 0.00 in0.0 mm
05:00 AM 12.0°F-11.1°C 0.1°F-17.7°C 58% Calm Calm -- 30.42 in1030.1 mb 0.00 in0.0 mm 0.00 in/hr0.0 mm/hr 0.00 in0.0 mm
04:45 AM 12.4°F-10.9°C 0.4°F-17.6°C 58% Calm Calm -- 30.42 in1030.1 mb 0.00 in0.0 mm 0.00 in/hr0.0 mm/hr 0.00 in0.0 mm
04:30 AM 12.6°F-10.8°C 0.6°F-17.4°C 58% Calm Calm 5.4 mph8.7 kmh 30.40 in1029.5 mb 0.00 in0.0 mm 0.00 in/hr0.0 mm/hr 0.00 in0.0 mm
04:15 AM 12.7°F-10.7°C 0.8°F-17.3°C 58% Calm Calm -- 30.40 in1029.5 mb 0.00 in0.0 mm 0.00 in/hr0.0 mm/hr 0.00 in0.0 mm
04:00 AM 13.1°F-10.5°C 1.1°F-17.2°C 58% Calm Calm 4.7 mph7.6 kmh 30.40 in1029.5 mb 0.00 in0.0 mm 0.00 in/hr0.0 mm/hr 0.00 in0.0 mm
03:45 AM 13.5°F-10.3°C 1.5°F-16.9°C 58% Calm Calm -- 30.40 in1029.5 mb 0.00 in0.0 mm 0.00 in/hr0.0 mm/hr 0.00 in0.0 mm
03:30 AM 13.5°F-10.3°C 1.5°F-16.9°C 58% 7.4 mph NNE11.9 kmh NNE 8.1 mph13.0 kmh 30.40 in1029.5 mb 0.00 in0.0 mm 0.00 in/hr0.0 mm/hr 0.00 in0.0 mm
03:15 AM 13.6°F-10.2°C 1.6°F-16.9°C 58% Calm Calm -- 30.40 in1029.5 mb 0.00 in0.0 mm 0.00 in/hr0.0 mm/hr 0.00 in0.0 mm
03:00 AM 13.6°F-10.2°C 1.6°F-16.9°C 58% 4.7 mph ENE7.6 kmh ENE 5.4 mph8.7 kmh 30.40 in1029.5 mb 0.00 in0.0 mm 0.00 in/hr0.0 mm/hr 0.00 in0.0 mm
02:45 AM 13.8°F-10.1°C 1.8°F-16.8°C 58% 4.7 mph W7.6 kmh W 5.4 mph8.7 kmh 30.40 in1029.5 mb 0.00 in0.0 mm 0.00 in/hr0.0 mm/hr 0.00 in0.0 mm
02:30 AM 14.0°F-10.0°C 2.0°F-16.7°C 58% Calm Calm -- 30.40 in1029.5 mb 0.00 in0.0 mm 0.00 in/hr0.0 mm/hr 0.00 in0.0 mm
02:15 AM 14.2°F-9.9°C 2.1°F-16.6°C 58% 5.4 mph ENE8.7 kmh ENE 6.7 mph10.8 kmh 30.37 in1028.4 mb 0.00 in0.0 mm 0.00 in/hr0.0 mm/hr 0.00 in0.0 mm
02:00 AM 14.2°F-9.9°C 2.1°F-16.6°C 58% Calm Calm -- 30.37 in1028.4 mb 0.00 in0.0 mm 0.00 in/hr0.0 mm/hr 0.00 in0.0 mm
01:45 AM 14.5°F-9.7°C 2.8°F-16.2°C 59% Calm Calm -- 30.37 in1028.4 mb 0.00 in0.0 mm 0.00 in/hr0.0 mm/hr 0.00 in0.0 mm
01:30 AM 14.7°F-9.6°C 3.4°F-15.9°C 60% 4.0 mph W6.4 kmh W 6.0 mph9.7 kmh 30.37 in1028.4 mb 0.00 in0.0 mm 0.00 in/hr0.0 mm/hr 0.00 in0.0 mm
01:15 AM 15.1°F-9.4°C 3.7°F-15.7°C 60% Calm Calm -- 30.37 in1028.4 mb 0.00 in0.0 mm 0.00 in/hr0.0 mm/hr 0.00 in0.0 mm
01:00 AM 15.1°F-9.4°C 4.1°F-15.5°C 61% 6.7 mph WSW10.8 kmh WSW 6.7 mph10.8 kmh 30.37 in1028.4 mb 0.00 in0.0 mm 0.00 in/hr0.0 mm/hr 0.00 in0.0 mm
12:45 AM 14.7°F-9.6°C 4.4°F-15.3°C 63% Calm Calm 5.4 mph8.7 kmh 30.34 in1027.4 mb 0.00 in0.0 mm 0.00 in/hr0.0 mm/hr 0.00 in0.0 mm
12:30 AM 14.2°F-9.9°C 3.9°F-15.6°C 63% Calm Calm -- 30.34 in1027.4 mb 0.00 in0.0 mm 0.00 in/hr0.0 mm/hr 0.00 in0.0 mm
12:15 AM 13.5°F-10.3°C 3.2°F-16.0°C 63% Calm Calm -- 30.34 in1027.4 mb 0.00 in0.0 mm 0.00 in/hr0.0 mm/hr 0.00 in0.0 mm
12:00 AM 13.3°F-10.4°C 3.1°F-16.1°C 63% Calm Calm -- 30.34 in1027.4 mb 0.00 in0.0 mm 0.00 in/hr0.0 mm/hr 0.00 in0.0 mm